WMT39L LUKK-LROP
Flight info
| Callsign | WMT39L |
|---|---|
| Flight time | 0h 37m |
| Altitude | 32000 |
| Route | LIPTA T34 KODRU DCT DENAK |
| Aircraft | A20N/M-SDE2E3FGHIRWXY/LB1 |
Departure
| Time | 2026-05-04 16:35 |
|---|---|
| Airport | Chişinău International Airport (LUKK) |
Arrival
| Time | 2026-05-04 17:12 |
|---|---|
| Airport | Bucharest Henri Coandă International Airport (LROP) |
| Time | Latitude | Longitude | Altitude | Speed | Heading |
|---|---|---|---|---|---|
| 2026-05-04 15:56 | 46.93359 | 28.93666 | 332 ft | 0 kts | 8° |
| 2026-05-04 16:22 | 46.93351 | 28.93665 | 332 ft | 2 kts | 7° |
| 2026-05-04 16:23 | 46.93304 | 28.93675 | 327 ft | 2 kts | 285° |
| 2026-05-04 16:24 | 46.93303 | 28.93690 | 329 ft | 0 kts | 273° |
| 2026-05-04 16:29 | 46.93303 | 28.93685 | 329 ft | 2 kts | 275° |
| 2026-05-04 16:30 | 46.93226 | 28.93452 | 334 ft | 15 kts | 187° |
| 2026-05-04 16:31 | 46.93167 | 28.93259 | 350 ft | 15 kts | 275° |
| 2026-05-04 16:31 | 46.93229 | 28.92494 | 364 ft | 33 kts | 276° |
| 2026-05-04 16:32 | 46.93073 | 28.91987 | 374 ft | 27 kts | 179° |
| 2026-05-04 16:33 | 46.92791 | 28.91996 | 376 ft | 16 kts | 174° |
| 2026-05-04 16:33 | 46.92762 | 28.92233 | 369 ft | 31 kts | 88° |
| 2026-05-04 16:34 | 46.92798 | 28.94066 | 322 ft | 146 kts | 88° |
| 2026-05-04 16:34 | 46.92824 | 28.95790 | 525 ft | 174 kts | 92° |
| 2026-05-04 16:35 | 46.92799 | 29.00836 | 2592 ft | 188 kts | 82° |
| 2026-05-04 16:35 | 46.90943 | 29.06463 | 3811 ft | 265 kts | 157° |
| 2026-05-04 16:36 | 46.89092 | 29.06854 | 4644 ft | 276 kts | 187° |
| 2026-05-04 16:36 | 46.85938 | 29.03883 | 6582 ft | 284 kts | 242° |
| 2026-05-04 16:37 | 46.84136 | 28.98582 | 8276 ft | 300 kts | 239° |
| 2026-05-04 16:37 | 46.82892 | 28.96074 | 9155 ft | 308 kts | 230° |
| 2026-05-04 16:37 | 46.79800 | 28.91471 | 10605 ft | 333 kts | 222° |
| 2026-05-04 16:38 | 46.76136 | 28.86652 | 11489 ft | 370 kts | 221° |
| 2026-05-04 16:39 | 46.70277 | 28.78951 | 13960 ft | 386 kts | 221° |
| 2026-05-04 16:39 | 46.66495 | 28.73963 | 15390 ft | 393 kts | 221° |
| 2026-05-04 16:40 | 46.62394 | 28.68563 | 16867 ft | 402 kts | 221° |
| 2026-05-04 16:40 | 46.58226 | 28.63086 | 18271 ft | 410 kts | 220° |
| 2026-05-04 16:41 | 46.53949 | 28.57477 | 19527 ft | 418 kts | 220° |
| 2026-05-04 16:41 | 46.47369 | 28.48876 | 21333 ft | 430 kts | 221° |
| 2026-05-04 16:42 | 46.40597 | 28.40052 | 23096 ft | 442 kts | 221° |
| 2026-05-04 16:43 | 46.35979 | 28.34051 | 24163 ft | 449 kts | 221° |
| 2026-05-04 16:43 | 46.31487 | 28.28226 | 25080 ft | 455 kts | 221° |
| 2026-05-04 16:43 | 46.29114 | 28.25155 | 25558 ft | 458 kts | 220° |
| 2026-05-04 16:44 | 46.19499 | 28.12744 | 27329 ft | 471 kts | 221° |
| 2026-05-04 16:45 | 46.14824 | 28.06000 | 27989 ft | 479 kts | 225° |
| 2026-05-04 16:46 | 46.03120 | 27.88910 | 28023 ft | 480 kts | 224° |
| 2026-05-04 16:47 | 45.93775 | 27.75377 | 28018 ft | 480 kts | 224° |
| 2026-05-04 16:48 | 45.85105 | 27.62885 | 28019 ft | 482 kts | 224° |
| 2026-05-04 16:49 | 45.75592 | 27.49245 | 28016 ft | 483 kts | 224° |
| 2026-05-04 16:50 | 45.66106 | 27.35711 | 28019 ft | 484 kts | 224° |
| 2026-05-04 16:51 | 45.58946 | 27.25541 | 27833 ft | 482 kts | 224° |
| 2026-05-04 16:51 | 45.54218 | 27.18848 | 26831 ft | 475 kts | 223° |
| 2026-05-04 16:52 | 45.49552 | 27.12258 | 25666 ft | 468 kts | 223° |
| 2026-05-04 16:52 | 45.47245 | 27.09005 | 25121 ft | 464 kts | 223° |
| 2026-05-04 16:53 | 45.42693 | 27.02607 | 24051 ft | 457 kts | 224° |
| 2026-05-04 16:53 | 45.36336 | 26.92942 | 22247 ft | 447 kts | 226° |
| 2026-05-04 16:54 | 45.34212 | 26.89674 | 21341 ft | 451 kts | 226° |
| 2026-05-04 16:55 | 45.25630 | 26.76202 | 17590 ft | 462 kts | 227° |
| 2026-05-04 16:55 | 45.21493 | 26.69696 | 17080 ft | 429 kts | 227° |
| 2026-05-04 16:56 | 45.17651 | 26.63670 | 17051 ft | 404 kts | 227° |
| 2026-05-04 16:56 | 45.11958 | 26.54777 | 17053 ft | 407 kts | 227° |
| 2026-05-04 16:57 | 45.10053 | 26.51806 | 17058 ft | 408 kts | 226° |
| 2026-05-04 16:57 | 45.06241 | 26.45871 | 17053 ft | 407 kts | 227° |
| 2026-05-04 16:58 | 45.00532 | 26.37004 | 16350 ft | 407 kts | 226° |
| 2026-05-04 16:58 | 44.98615 | 26.34033 | 15545 ft | 411 kts | 226° |
| 2026-05-04 16:59 | 44.94697 | 26.27973 | 13643 ft | 424 kts | 227° |
| 2026-05-04 17:00 | 44.86788 | 26.15786 | 11111 ft | 397 kts | 227° |
| 2026-05-04 17:00 | 44.81359 | 26.07450 | 9422 ft | 387 kts | 228° |
| 2026-05-04 17:01 | 44.77727 | 26.01885 | 7803 ft | 389 kts | 229° |
| 2026-05-04 17:01 | 44.74160 | 25.96430 | 7111 ft | 363 kts | 229° |
| 2026-05-04 17:02 | 44.70893 | 25.91445 | 6809 ft | 331 kts | 229° |
| 2026-05-04 17:02 | 44.67901 | 25.86883 | 6558 ft | 304 kts | 229° |
| 2026-05-04 17:03 | 44.66556 | 25.84836 | 6435 ft | 291 kts | 229° |
| 2026-05-04 17:03 | 44.65209 | 25.82785 | 6323 ft | 279 kts | 229° |
| 2026-05-04 17:03 | 44.63683 | 25.78219 | 6003 ft | 251 kts | 267° |
| 2026-05-04 17:04 | 44.63333 | 25.73360 | 5414 ft | 253 kts | 266° |
| 2026-05-04 17:04 | 44.62952 | 25.68392 | 4410 ft | 264 kts | 264° |
| 2026-05-04 17:05 | 44.61010 | 25.64018 | 3132 ft | 282 kts | 212° |
| 2026-05-04 17:05 | 44.57250 | 25.63583 | 2516 ft | 272 kts | 156° |
| 2026-05-04 17:06 | 44.55060 | 25.67402 | 2487 ft | 263 kts | 99° |
| 2026-05-04 17:06 | 44.55042 | 25.69950 | 2487 ft | 261 kts | 86° |
| 2026-05-04 17:07 | 44.55125 | 25.75047 | 2494 ft | 261 kts | 92° |
| 2026-05-04 17:07 | 44.55053 | 25.76728 | 2493 ft | 261 kts | 94° |
| 2026-05-04 17:07 | 44.54805 | 25.80114 | 2492 ft | 260 kts | 96° |
| 2026-05-04 17:07 | 44.54616 | 25.82640 | 2489 ft | 260 kts | 91° |
| 2026-05-04 17:08 | 44.54739 | 25.85164 | 2495 ft | 260 kts | 83° |
| 2026-05-04 17:08 | 44.55129 | 25.90033 | 2497 ft | 239 kts | 83° |
| 2026-05-04 17:08 | 44.55300 | 25.92290 | 2471 ft | 226 kts | 83° |
| 2026-05-04 17:09 | 44.55464 | 25.94449 | 2178 ft | 224 kts | 83° |
| 2026-05-04 17:09 | 44.55625 | 25.96572 | 1852 ft | 212 kts | 83° |
| 2026-05-04 17:09 | 44.55776 | 25.98566 | 1595 ft | 197 kts | 83° |
| 2026-05-04 17:10 | 44.56040 | 26.02058 | 1109 ft | 165 kts | 84° |
| 2026-05-04 17:10 | 44.56354 | 26.06181 | 540 ft | 132 kts | 84° |
| 2026-05-04 17:11 | 44.56449 | 26.07461 | 394 ft | 130 kts | 85° |
| 2026-05-04 17:11 | 44.56549 | 26.08711 | 319 ft | 123 kts | 85° |
| 2026-05-04 17:11 | 44.56650 | 26.10160 | 320 ft | 52 kts | 84° |
| 2026-05-04 17:12 | 44.56695 | 26.10688 | 319 ft | 40 kts | 74° |
| 2026-05-04 17:12 | 44.56867 | 26.10757 | 324 ft | 19 kts | 353° |
| 2026-05-04 17:13 | 44.57031 | 26.10070 | 327 ft | 34 kts | 264° |
| 2026-05-04 17:14 | 44.56960 | 26.09562 | 327 ft | 10 kts | 182° |
| 2026-05-04 17:14 | 44.56902 | 26.09571 | 326 ft | 0 kts | 174° |
| 2026-05-04 17:14 | 44.56905 | 26.09570 | 326 ft | 0 kts | 174° |